Historyczne dane pomiarowe

Dodano dane terminowe – wersja testowa.

Dane z okresu 1951-2019

Wersja bazy: 1.34 [2019-03-16, lista zmian], aktualizacja planowana na 2019-04-15

Dane meteo z obszaru Polski uzyskane na podstawie danych udostępnionych przez Instytut Meteorologii i Gospodarki Wodnej – Państwowy Instytut Badawczy.

 

Wybierz Datę:    

       

TemperaturaWilgotnośćZachmurzenieWiatrCiśnienieWidzialnośćZjawiska
 Data    tng td wb rh cc ccl cl cm ch dir g1 g2 mslp ppp      
1999-08-10 00:00:00 16.8--- 15.5 16.092wxwxwx1wx--1009.3 985.1 0.0---wx
1999-08-10 01:00:00 16.2--- 15.2 15.694wxwx0wx--1008.9 984.7----wx
1999-08-10 02:00:00 15.2--- 14.2 14.694wxwx0wx--1009.1 984.8----wx
1999-08-10 03:00:00 15.2--- 14.5 14.896wxwxwx1wx--1009.0 984.7----wx
1999-08-10 04:00:00 14.8--- 14.1 14.496wxwxwx1wx--1009.2 984.9----wx
1999-08-10 05:00:00 16.0--- 15.0 15.494wxwxwx0wx--1009.4 985.2----wx
1999-08-10 06:00:00 17.6--- 16.3 16.892wxwxwxwx2wx--1009.2 985.1 0.0---wx
1999-08-10 07:00:00 20.3--- 17.2 18.382wxwxwxwx2wx--1009.5 985.6----wx
1999-08-10 08:00:00 21.9--- 18.0 19.378wxwxwx0wx--1009.8 986.0----wx
1999-08-10 09:00:00 23.5--- 17.9 19.871wxwxwxwx2wx--1009.3 985.7----wx
1999-08-10 10:00:00 24.2--- 16.9 19.464wxwxwxwx1wx--1008.6 985.0----wx
1999-08-10 11:00:00 24.7--- 17.8 20.165wxwxwxwx0wx--1008.6 985.1----wx
1999-08-10 12:00:00 24.9--- 18.2 20.466wxwxwxwx2wx--1008.6 985.1 0.0---wx
1999-08-10 13:00:00 23.9--- 17.2 19.566wxwxwxwx4wx--1008.7 985.1----wx
1999-08-10 14:00:00 21.8--- 16.9 18.674wxwxwxwx4wx--1009.2 985.4----wx
1999-08-10 15:00:00 19.5--- 17.7 18.389wxwxwxwx3wx--1010.3 986.3----wx
1999-08-10 16:00:00 19.3--- 18.1 18.593wxwxwxwx1wx--1010.1 986.1----wxw1
1999-08-10 17:00:00 19.2--- 18.3 18.694wxwxwxwx3wx--1010.1 986.1----wx
1999-08-10 18:00:00 18.8--- 18.0 18.395wxwxwxwx2wx--1010.1 986.1 4.8---wxw1
1999-08-10 19:00:00 18.4--- 17.6 17.995wxwxwxwx2wx--1010.7 986.6----wx
1999-08-10 20:00:00 18.0--- 17.1 17.494wxwxwx4wx--1011.2 987.1----wx
1999-08-10 21:00:00 18.2--- 17.6 17.896wxwxwx1wx--1011.3 987.2----wx
1999-08-10 22:00:00 18.0--- 17.2 17.595wxwxwx2wx--1011.8 987.7----wx
1999-08-10 23:00:00 17.6--- 16.5 16.993wxwxwx1wx--1011.9 987.7----wx

 

Źródłem pochodzenia danych jest Instytut Meteorologii i Gospodarki Wodnej – Państwowy Instytut Badawczy. Dane Instytutu Meteorologii i Gospodarki Wodnej – Państwowego Instytutu Badawczego zostały przetworzone.

Dane źródłowe można odnaleźć na stronie https://dane.imgw.pl